createdAt,value
2022-11-22T00:00:49.355Z,6.98
2022-11-22T00:03:16.066Z,6.94
2022-11-22T00:05:42.734Z,6.94
2022-11-22T00:08:09.464Z,6.99
2022-11-22T00:10:36.234Z,7.05
2022-11-22T00:13:03.429Z,7.03
2022-11-22T00:15:30.638Z,7.13
2022-11-22T00:17:57.614Z,6.97
2022-11-22T00:20:24.394Z,6.96
2022-11-22T00:22:51.039Z,6.88
2022-11-22T00:25:18.021Z,6.79
2022-11-22T00:27:44.804Z,6.75
2022-11-22T00:30:11.762Z,6.75
2022-11-22T00:32:38.493Z,6.64
2022-11-22T00:35:05.748Z,6.63
2022-11-22T00:37:32.475Z,6.68
2022-11-22T00:39:59.297Z,6.70
2022-11-22T00:42:26.152Z,6.68
2022-11-22T00:47:30.685Z,6.72
2022-11-22T00:49:57.369Z,6.70
2022-11-22T00:52:24.020Z,6.66
2022-11-22T00:54:54.703Z,6.61
2022-11-22T00:57:21.609Z,6.60
2022-11-22T00:59:48.249Z,6.73
2022-11-22T01:02:15.001Z,6.68
2022-11-22T01:04:41.743Z,6.76
2022-11-22T01:07:09.941Z,6.77
2022-11-22T01:09:36.700Z,6.73
2022-11-22T01:12:03.504Z,6.70
2022-11-22T01:14:30.270Z,6.76
2022-11-22T01:16:56.943Z,6.91
2022-11-22T01:19:23.612Z,6.93
2022-11-22T01:21:50.240Z,7.05
2022-11-22T01:24:16.914Z,7.12
2022-11-22T01:26:43.584Z,7.16
2022-11-22T01:29:10.249Z,7.23
2022-11-22T01:31:36.989Z,7.24
2022-11-22T01:34:05.956Z,7.30
2022-11-22T01:36:32.618Z,7.29
2022-11-22T01:38:59.256Z,7.32
2022-11-22T01:43:58.808Z,7.34
2022-11-22T01:46:39.688Z,7.24
2022-11-22T01:51:51.563Z,7.21
2022-11-22T01:54:22.848Z,7.17
2022-11-22T01:56:56.465Z,7.14
2022-11-22T01:59:28.801Z,7.17
2022-11-22T02:01:56.299Z,7.31
2022-11-22T02:04:24.927Z,7.29
2022-11-22T02:07:08.208Z,7.32
2022-11-22T02:09:37.684Z,7.33
2022-11-22T02:12:06.577Z,7.29
2022-11-22T02:14:34.523Z,7.35
2022-11-22T02:17:01.193Z,7.36
2022-11-22T02:19:45.710Z,7.29
2022-11-22T02:22:21.666Z,7.34
2022-11-22T02:24:57.168Z,7.37
2022-11-22T02:27:24.373Z,7.36
2022-11-22T02:29:51.328Z,7.35
2022-11-22T02:32:18.019Z,7.36
2022-11-22T02:34:49.781Z,7.42
2022-11-22T02:37:22.599Z,7.48
2022-11-22T02:39:53.767Z,7.48
2022-11-22T02:42:20.657Z,7.48
2022-11-22T02:44:47.304Z,7.45
2022-11-22T02:47:14.036Z,7.53
2022-11-22T02:49:40.703Z,7.43
2022-11-22T02:52:07.320Z,7.49
2022-11-22T02:54:34.001Z,7.56
2022-11-22T02:57:03.216Z,7.56
2022-11-22T03:02:03.368Z,7.52
2022-11-22T03:04:30.452Z,7.48
2022-11-22T03:06:59.376Z,7.58
2022-11-22T03:09:27.700Z,7.47
2022-11-22T03:11:55.171Z,7.55
2022-11-22T03:14:22.098Z,7.42
2022-11-22T03:16:49.327Z,7.44
2022-11-22T03:19:16.171Z,7.45
2022-11-22T03:21:43.517Z,7.41
2022-11-22T03:24:11.079Z,7.34
2022-11-22T03:26:37.894Z,7.32
2022-11-22T03:29:05.358Z,7.30
2022-11-22T03:31:32.077Z,7.30
2022-11-22T03:33:58.761Z,7.22
2022-11-22T03:36:25.437Z,7.26
2022-11-22T03:38:52.098Z,7.34
2022-11-22T03:41:18.833Z,7.31
2022-11-22T03:43:45.573Z,7.23
2022-11-22T03:46:15.503Z,7.22
2022-11-22T03:48:42.403Z,7.34
2022-11-22T03:51:09.227Z,7.33
2022-11-22T03:53:35.940Z,7.39
2022-11-22T03:56:02.611Z,7.29
2022-11-22T03:58:29.337Z,7.25
2022-11-22T04:00:56.548Z,7.27
2022-11-22T04:03:23.282Z,7.23
2022-11-22T04:05:49.929Z,7.19
2022-11-22T04:08:16.534Z,7.11
2022-11-22T04:10:43.179Z,7.21
2022-11-22T04:13:09.866Z,7.25
2022-11-22T04:15:37.458Z,7.21
2022-11-22T04:18:04.131Z,7.04
2022-11-22T04:20:49.788Z,7.06
2022-11-22T04:23:19.313Z,7.21
2022-11-22T04:25:51.244Z,7.14
2022-11-22T04:28:24.516Z,7.12
2022-11-22T04:31:16.331Z,7.17
2022-11-22T04:33:42.975Z,7.04
2022-11-22T04:36:13.297Z,6.96
2022-11-22T04:38:40.245Z,6.95
2022-11-22T04:41:06.886Z,6.88
2022-11-22T04:43:52.223Z,6.83
2022-11-22T04:46:18.881Z,6.74
2022-11-22T04:51:41.871Z,6.64
2022-11-22T04:54:08.537Z,6.66
2022-11-22T04:56:35.187Z,6.61
2022-11-22T04:59:01.904Z,6.45
2022-11-22T05:01:28.555Z,6.36
2022-11-22T05:03:55.253Z,6.28
2022-11-22T05:06:21.919Z,6.26
2022-11-22T05:08:48.561Z,6.10
2022-11-22T05:11:15.210Z,6.09
2022-11-22T05:16:15.771Z,6.02
2022-11-22T05:18:42.668Z,6.00
2022-11-22T05:21:12.661Z,6.07
2022-11-22T05:23:54.777Z,6.13
2022-11-22T05:26:27.599Z,6.24
2022-11-22T05:28:54.487Z,6.13
2022-11-22T05:34:00.103Z,6.03
2022-11-22T05:36:27.971Z,6.22
2022-11-22T05:38:54.962Z,6.32
2022-11-22T05:41:21.693Z,6.19
2022-11-22T05:43:48.337Z,6.04
2022-11-22T05:46:24.998Z,5.90
2022-11-22T05:48:53.494Z,6.05
2022-11-22T05:51:22.493Z,5.96
2022-11-22T05:53:49.301Z,6.05
2022-11-22T05:56:22.049Z,6.05
2022-11-22T05:58:49.107Z,5.91
2022-11-22T06:01:23.201Z,5.87
2022-11-22T06:03:50.463Z,5.97
2022-11-22T06:06:17.632Z,6.07
2022-11-22T06:08:47.069Z,6.26
2022-11-22T06:11:25.747Z,6.34
2022-11-22T06:14:00.722Z,6.19
2022-11-22T06:16:27.624Z,6.35
2022-11-22T06:18:55.211Z,6.37
2022-11-22T06:21:25.842Z,6.22
2022-11-22T06:23:54.250Z,6.20
2022-11-22T06:29:00.772Z,6.33
2022-11-22T06:31:28.082Z,6.33
2022-11-22T06:33:57.000Z,6.52
2022-11-22T06:36:26.270Z,6.59
2022-11-22T06:38:53.020Z,6.61
2022-11-22T06:41:22.155Z,6.63
2022-11-22T06:43:51.369Z,6.56
2022-11-22T06:46:20.346Z,6.65
2022-11-22T06:48:47.529Z,6.59
2022-11-22T06:51:16.719Z,6.41
2022-11-22T06:53:48.609Z,6.41
2022-11-22T06:56:33.475Z,6.45
2022-11-22T07:01:49.324Z,6.47
2022-11-22T07:04:16.224Z,6.57
2022-11-22T07:09:32.263Z,6.63
2022-11-22T07:12:00.040Z,6.66
2022-11-22T07:14:27.055Z,6.58
2022-11-22T07:16:53.748Z,6.64
2022-11-22T07:19:20.629Z,6.63
2022-11-22T07:21:47.542Z,6.72
2022-11-22T07:26:46.866Z,6.56
2022-11-22T07:29:13.878Z,6.46
2022-11-22T07:31:40.943Z,6.47
2022-11-22T07:34:07.627Z,6.54
2022-11-22T07:36:34.914Z,6.53
2022-11-22T07:39:03.546Z,6.59
2022-11-22T07:41:30.351Z,6.59
2022-11-22T07:43:58.172Z,6.55
2022-11-22T07:46:31.641Z,6.56
2022-11-22T07:48:59.542Z,6.60
2022-11-22T07:51:27.681Z,6.66
2022-11-22T07:53:55.935Z,6.63
2022-11-22T07:56:23.331Z,6.78
2022-11-22T07:58:49.923Z,6.79
2022-11-22T08:01:18.542Z,6.71
2022-11-22T08:03:45.589Z,6.66
2022-11-22T08:06:13.524Z,6.69
2022-11-22T08:08:40.175Z,6.74
2022-11-22T08:11:08.204Z,6.76
2022-11-22T08:13:35.627Z,6.81
2022-11-22T08:16:06.414Z,6.74
2022-11-22T08:18:34.621Z,6.78
2022-11-22T08:21:13.183Z,6.88
2022-11-22T08:23:41.411Z,7.01
2022-11-22T08:26:11.117Z,7.00
2022-11-22T08:28:37.801Z,7.15
2022-11-22T08:31:08.619Z,7.18
2022-11-22T08:33:35.320Z,7.35
2022-11-22T08:36:02.633Z,7.26
2022-11-22T08:38:29.301Z,7.35
2022-11-22T08:40:56.221Z,7.35
2022-11-22T08:43:22.985Z,7.25
2022-11-22T08:45:54.649Z,7.29
2022-11-22T08:48:22.576Z,7.33
2022-11-22T08:50:57.788Z,7.41
2022-11-22T08:53:25.335Z,7.40
2022-11-22T08:55:52.655Z,7.57
2022-11-22T09:00:53.969Z,7.44
2022-11-22T09:03:20.716Z,7.42
2022-11-22T09:08:36.633Z,7.63
2022-11-22T09:11:10.002Z,7.57
2022-11-22T09:13:37.159Z,7.72
2022-11-22T09:16:09.213Z,7.77
2022-11-22T09:18:36.268Z,7.74
2022-11-22T09:23:39.750Z,7.81
2022-11-22T09:26:09.524Z,7.89
2022-11-22T09:28:36.574Z,7.98
2022-11-22T09:31:15.085Z,8.01
2022-11-22T09:33:45.240Z,8.01
2022-11-22T09:36:17.255Z,8.16
2022-11-22T09:38:43.968Z,8.17
2022-11-22T09:41:16.556Z,8.13
2022-11-22T09:46:44.801Z,8.18
2022-11-22T09:49:35.274Z,8.37
2022-11-22T09:52:05.247Z,8.27
2022-11-22T09:54:45.138Z,8.31
2022-11-22T09:57:21.827Z,8.30
2022-11-22T09:59:55.064Z,8.29
2022-11-22T10:02:58.878Z,8.28
2022-11-22T10:05:32.422Z,8.31
2022-11-22T10:08:16.448Z,8.26
2022-11-22T10:10:43.960Z,8.33
2022-11-22T10:13:27.837Z,8.39
2022-11-22T10:16:07.682Z,8.29
2022-11-22T10:18:46.293Z,8.28
2022-11-22T10:21:15.344Z,8.33
2022-11-22T10:23:44.070Z,8.33
2022-11-22T10:26:22.392Z,8.50
2022-11-22T10:29:20.092Z,8.45
2022-11-22T10:32:25.741Z,8.39
2022-11-22T10:35:14.295Z,8.42
2022-11-22T10:37:47.076Z,8.43
2022-11-22T10:40:25.720Z,8.40
2022-11-22T10:43:04.462Z,8.41
2022-11-22T10:45:42.154Z,8.45
2022-11-22T10:51:33.088Z,8.49
2022-11-22T10:54:03.462Z,8.45
2022-11-22T10:56:38.824Z,8.45
2022-11-22T10:59:38.578Z,8.41
2022-11-22T11:02:23.444Z,8.46
2022-11-22T11:04:53.145Z,8.49
2022-11-22T11:07:23.962Z,8.50
2022-11-22T11:10:10.914Z,8.59
2022-11-22T11:12:50.631Z,8.57
2022-11-22T11:15:37.861Z,8.62
2022-11-22T11:18:19.946Z,8.59
2022-11-22T11:20:48.035Z,8.54
2022-11-22T11:23:16.285Z,8.50
2022-11-22T11:25:45.560Z,8.62
2022-11-22T11:28:17.695Z,8.71
2022-11-22T11:30:48.226Z,8.80
2022-11-22T11:36:02.995Z,8.75
2022-11-22T11:38:35.902Z,8.79
2022-11-22T11:41:21.292Z,8.80
2022-11-22T11:43:49.332Z,8.87
2022-11-22T11:46:18.056Z,8.85
2022-11-22T11:48:45.366Z,8.90
2022-11-22T11:51:17.796Z,9.00
2022-11-22T11:54:05.866Z,9.00
2022-11-22T11:56:45.290Z,8.97
2022-11-22T11:59:15.659Z,9.00
2022-11-22T12:01:53.647Z,9.15
2022-11-22T12:04:25.575Z,9.20
2022-11-22T12:07:18.227Z,9.10
2022-11-22T12:09:48.029Z,9.05
2022-11-22T12:12:51.518Z,9.11
2022-11-22T12:15:27.710Z,9.14
2022-11-22T12:18:33.491Z,9.14
2022-11-22T12:21:37.368Z,9.07
2022-11-22T12:27:14.827Z,9.24
2022-11-22T12:29:46.330Z,9.31
2022-11-22T12:32:24.355Z,9.36
2022-11-22T12:34:56.981Z,9.42
2022-11-22T12:40:27.200Z,9.39
2022-11-22T12:43:05.488Z,9.39
2022-11-22T12:45:53.328Z,9.36
2022-11-22T12:48:44.571Z,9.54
2022-11-22T12:54:09.203Z,9.48
2022-11-22T12:56:58.377Z,9.52
2022-11-22T13:00:02.851Z,9.47
2022-11-22T13:02:39.237Z,9.44
2022-11-22T13:05:13.728Z,9.45
2022-11-22T13:08:17.640Z,9.46
2022-11-22T13:10:49.887Z,9.32
2022-11-22T13:13:38.739Z,9.32
2022-11-22T13:16:10.466Z,9.35
2022-11-22T13:18:45.192Z,9.48
2022-11-22T13:21:30.044Z,9.52
2022-11-22T13:24:27.497Z,9.45
2022-11-22T13:27:11.767Z,9.49
2022-11-22T13:29:41.535Z,9.54
2022-11-22T13:32:13.919Z,9.46
2022-11-22T13:34:58.779Z,9.50
2022-11-22T13:37:26.341Z,9.37
2022-11-22T13:39:53.257Z,9.41
2022-11-22T13:42:27.711Z,9.25
2022-11-22T13:49:59.945Z,9.22
2022-11-22T13:52:50.933Z,9.21
2022-11-22T13:55:30.628Z,9.15
2022-11-22T13:58:23.271Z,9.12
2022-11-22T14:00:50.913Z,9.08
2022-11-22T14:03:26.750Z,9.10
2022-11-22T14:05:57.315Z,9.03
2022-11-22T14:08:35.486Z,9.15
2022-11-22T14:13:59.810Z,9.09
2022-11-22T14:16:40.101Z,9.11
2022-11-22T14:19:31.686Z,9.07
2022-11-22T14:25:14.146Z,8.98
2022-11-22T14:28:08.590Z,8.92
2022-11-22T14:30:44.680Z,8.89
2022-11-22T14:33:17.433Z,8.87
2022-11-22T14:36:09.690Z,8.90
2022-11-22T14:38:37.088Z,8.85
2022-11-22T14:41:28.361Z,8.80
2022-11-22T14:46:58.044Z,8.73
2022-11-22T14:49:46.747Z,9.64
2022-11-22T14:52:26.398Z,9.00
2022-11-22T14:54:58.103Z,8.92
2022-11-22T14:57:26.962Z,8.90
2022-11-22T15:03:09.869Z,8.91
2022-11-22T15:09:21.752Z,8.78
2022-11-22T15:09:53.057Z,8.77
2022-11-22T15:12:24.684Z,8.74
2022-11-22T15:57:27.516Z,8.44
2022-11-22T15:59:54.930Z,8.46
2022-11-22T16:02:25.534Z,8.45
2022-11-22T16:06:08.553Z,8.56
2022-11-22T16:07:49.060Z,8.46
2022-11-22T16:10:25.868Z,8.45
2022-11-22T16:12:54.390Z,8.40
2022-11-22T16:15:26.136Z,9.25
2022-11-22T16:21:04.949Z,8.72
2022-11-22T16:23:34.114Z,8.60
2022-11-22T16:29:47.069Z,8.61
2022-11-22T16:32:15.483Z,8.57
2022-11-22T16:34:43.518Z,8.53
2022-11-22T16:37:37.676Z,8.57
2022-11-22T16:40:06.415Z,8.55
2022-11-22T16:45:06.611Z,8.42
2022-11-22T16:47:33.281Z,8.38
2022-11-22T16:49:59.974Z,8.47
2022-11-22T16:52:26.594Z,8.49
2022-11-22T16:54:53.254Z,8.52
2022-11-22T16:57:19.900Z,8.44
2022-11-22T16:59:46.579Z,8.48
2022-11-22T17:02:15.859Z,8.46
2022-11-22T17:04:45.926Z,8.53
2022-11-22T17:07:13.661Z,8.44
2022-11-22T17:09:40.629Z,8.45
2022-11-22T17:12:22.618Z,8.47
2022-11-22T17:14:51.059Z,8.45
2022-11-22T17:17:18.913Z,8.56
2022-11-22T17:19:53.046Z,8.54
2022-11-22T17:22:20.789Z,8.52
2022-11-22T17:24:47.421Z,8.45
2022-11-22T17:27:14.560Z,8.55
2022-11-22T17:29:56.999Z,8.40
2022-11-22T17:35:00.658Z,8.43
2022-11-22T17:37:29.603Z,8.47
2022-11-22T17:39:56.190Z,8.44
2022-11-22T17:42:24.305Z,8.45
2022-11-22T17:44:50.966Z,8.48
2022-11-22T17:49:55.561Z,8.50
2022-11-22T17:52:22.238Z,8.41
2022-11-22T17:54:48.874Z,8.42
2022-11-22T17:59:52.773Z,9.38
2022-11-22T18:02:19.495Z,8.67
2022-11-22T18:04:46.137Z,8.61
2022-11-22T18:07:20.015Z,8.57
2022-11-22T18:09:52.941Z,8.54
2022-11-22T18:12:25.788Z,8.53
2022-11-22T18:14:58.521Z,8.53
2022-11-22T18:17:35.255Z,8.45
2022-11-22T18:20:08.426Z,8.44
2022-11-22T18:25:20.338Z,8.39
2022-11-22T18:27:47.008Z,8.27
2022-11-22T18:30:14.468Z,8.34
2022-11-22T18:32:41.095Z,8.34
2022-11-22T18:35:08.104Z,8.32
2022-11-22T18:37:34.803Z,8.35
2022-11-22T18:40:01.474Z,8.25
2022-11-22T18:42:28.126Z,8.28
2022-11-22T18:44:54.794Z,8.45
2022-11-22T18:47:21.496Z,8.33
2022-11-22T18:49:48.352Z,8.48
2022-11-22T18:52:17.821Z,8.37
2022-11-22T18:54:44.978Z,8.33
2022-11-22T18:57:11.807Z,9.26
2022-11-22T18:59:38.500Z,10.12
2022-11-22T19:02:05.130Z,9.80
2022-11-22T19:04:32.015Z,9.68
2022-11-22T19:06:59.615Z,9.29
2022-11-22T19:09:26.238Z,8.97
2022-11-22T19:11:58.403Z,8.77
2022-11-22T19:14:27.241Z,8.71
2022-11-22T19:16:53.973Z,8.55
2022-11-22T19:19:20.686Z,8.52
2022-11-22T19:21:47.355Z,8.38
2022-11-22T19:24:14.022Z,8.36
2022-11-22T19:26:40.689Z,8.34
2022-11-22T19:29:07.376Z,8.40
2022-11-22T19:31:34.099Z,8.40
2022-11-22T19:34:00.835Z,8.37
2022-11-22T19:36:36.393Z,8.39
2022-11-22T19:39:05.264Z,8.35
2022-11-22T19:41:32.251Z,8.32
2022-11-22T19:43:59.070Z,8.29
2022-11-22T19:46:26.439Z,8.38
2022-11-22T19:48:55.193Z,8.35
2022-11-22T19:51:22.799Z,8.29
2022-11-22T19:53:53.578Z,8.38
2022-11-22T19:56:21.165Z,8.36
2022-11-22T19:58:52.426Z,8.28
2022-11-22T20:01:20.271Z,8.30
2022-11-22T20:03:51.980Z,8.24
2022-11-22T20:06:18.889Z,8.29
2022-11-22T20:08:45.645Z,8.17
2022-11-22T20:11:15.003Z,8.17
2022-11-22T20:13:44.548Z,8.15
2022-11-22T20:16:23.408Z,8.16
2022-11-22T20:18:56.849Z,8.19
2022-11-22T20:21:24.636Z,8.24
2022-11-22T20:23:52.205Z,8.30
2022-11-22T20:26:19.987Z,8.22
2022-11-22T20:28:47.639Z,8.24
2022-11-22T20:31:19.316Z,8.21
2022-11-22T20:33:48.999Z,8.21
2022-11-22T20:36:26.929Z,8.19
2022-11-22T20:38:54.208Z,8.23
2022-11-22T20:41:23.913Z,8.26
2022-11-22T20:43:50.701Z,8.08
2022-11-22T20:46:20.279Z,8.03
2022-11-22T20:48:48.292Z,7.97
2022-11-22T20:51:19.020Z,7.95
2022-11-22T20:53:46.250Z,7.99
2022-11-22T20:56:14.211Z,7.98
2022-11-22T20:58:41.510Z,7.93
2022-11-22T21:01:11.898Z,7.97
2022-11-22T21:03:38.661Z,7.80
2022-11-22T21:06:05.668Z,7.80
2022-11-22T21:08:33.689Z,7.73
2022-11-22T21:11:07.241Z,7.68
2022-11-22T21:13:34.594Z,7.72
2022-11-22T21:16:21.574Z,7.73
2022-11-22T21:18:51.700Z,7.61
2022-11-22T21:21:23.343Z,7.68
2022-11-22T21:23:52.076Z,7.64
2022-11-22T21:26:19.215Z,7.59
2022-11-22T21:28:45.944Z,7.55
2022-11-22T21:31:12.565Z,7.65
2022-11-22T21:33:39.356Z,7.62
2022-11-22T21:36:06.868Z,7.55
2022-11-22T21:38:38.657Z,7.51
2022-11-22T21:41:37.671Z,7.44
2022-11-22T21:43:56.436Z,7.53
2022-11-22T21:46:23.630Z,7.33
2022-11-22T21:48:50.730Z,7.25
2022-11-22T21:51:17.645Z,7.11
2022-11-22T21:53:44.520Z,7.06
2022-11-22T21:56:11.250Z,7.02
2022-11-22T21:58:37.937Z,7.33
2022-11-22T22:01:10.964Z,7.20
2022-11-22T22:03:40.335Z,7.31
2022-11-22T22:06:07.503Z,7.19
2022-11-22T22:08:34.478Z,7.06
2022-11-22T22:11:04.089Z,7.01
2022-11-22T22:13:31.139Z,6.84
2022-11-22T22:16:00.289Z,6.88
2022-11-22T22:18:35.170Z,6.91
2022-11-22T22:21:03.975Z,6.97
2022-11-22T22:23:30.846Z,7.08
2022-11-22T22:26:01.883Z,6.99
2022-11-22T22:28:30.236Z,6.88
2022-11-22T22:31:10.937Z,6.77
2022-11-22T22:33:40.412Z,6.86
2022-11-22T22:38:41.021Z,6.90
2022-11-22T22:41:10.556Z,6.85
2022-11-22T22:43:39.875Z,6.86
2022-11-22T22:46:15.534Z,6.95
2022-11-22T22:51:17.133Z,6.97
2022-11-22T22:53:45.029Z,6.88
2022-11-22T22:56:12.964Z,6.88
2022-11-22T23:01:13.432Z,6.76
2022-11-22T23:03:40.552Z,6.78
2022-11-22T23:06:09.290Z,6.76
2022-11-22T23:08:37.127Z,6.80
2022-11-22T23:13:41.444Z,6.75
2022-11-22T23:16:11.720Z,6.88
2022-11-22T23:18:41.484Z,6.81
2022-11-22T23:21:10.564Z,6.54
2022-11-22T23:23:37.234Z,6.56
2022-11-22T23:26:06.136Z,6.54
2022-11-22T23:28:33.351Z,6.59
2022-11-22T23:31:05.967Z,6.45
2022-11-22T23:33:32.680Z,6.61
2022-11-22T23:36:06.448Z,6.64
2022-11-22T23:38:34.861Z,6.70
2022-11-22T23:41:01.866Z,6.80
2022-11-22T23:43:29.023Z,6.59
2022-11-22T23:45:56.067Z,6.68
2022-11-22T23:48:22.751Z,6.65
2022-11-22T23:50:49.344Z,6.34
2022-11-22T23:53:15.973Z,6.34
2022-11-22T23:55:43.051Z,6.36
2022-11-22T23:58:09.756Z,6.48
